Time;durP1;ratioP1;P1;durP2;ratioP2;P2;SDS_P1;SDS_P2;PMS_P1;PMS_P2;Temp;Humidity;BMP_temperature;BMP_pressure;BME280_temperature;BME280_humidity;BME280_pressure;Samples;Min_cycle;Max_cycle;Signal;HPM_P1;HPM_P2
2024/01/26 00:01:40;;;;;;;10.23;5.20;;;;;;;3.03;100.00;96801.34;7402230;19;20376;-88
2024/01/26 00:04:08;;;;;;;11.30;6.47;;;;;;;3.32;100.00;96825.38;7399947;19;20408;-88
2024/01/26 00:06:35;;;;;;;14.40;5.80;;;;;;;2.95;100.00;96766.25;7402287;19;20375;-88
2024/01/26 00:09:11;;;;;;;12.30;6.00;;;;;;;3.22;100.00;96814.84;7401877;19;20399;-88
2024/01/26 00:11:42;;;;;;;13.67;7.40;;;;;;;2.96;100.00;96792.94;7402700;19;20388;-88
2024/01/26 00:14:10;;;;;;;15.37;6.87;;;;;;;2.75;100.00;96740.03;7400382;19;20453;-88
2024/01/26 00:16:37;;;;;;;12.23;6.80;;;;;;;2.71;100.00;96713.81;7401842;19;20365;-88
2024/01/26 00:19:06;;;;;;;14.33;10.00;;;;;;;3.00;100.00;96760.34;7401874;19;20369;-88
2024/01/26 00:21:38;;;;;;;16.07;8.50;;;;;;;3.75;100.00;96850.59;7401425;19;20377;-88
2024/01/26 00:24:05;;;;;;;21.73;10.10;;;;;;;2.82;100.00;96717.31;7400156;19;20412;-88
2024/01/26 00:26:33;;;;;;;18.60;9.23;;;;;;;2.79;100.00;96710.03;7401188;19;20375;-88
2024/01/26 00:29:00;;;;;;;17.13;8.37;;;;;;;3.06;100.00;96743.84;7403139;19;20376;-88
2024/01/26 00:31:28;;;;;;;13.37;8.10;;;;;;;3.49;100.00;96789.78;7401677;19;20372;-88
2024/01/26 00:33:55;;;;;;;23.53;10.60;;;;;;;2.83;100.00;96695.56;7399312;19;20416;-88
2024/01/26 00:36:23;;;;;;;15.00;7.93;;;;;;;3.35;100.00;96764.44;7401548;19;20353;-87
2024/01/26 00:38:50;;;;;;;11.97;7.73;;;;;;;2.76;100.00;96735.63;7399004;19;20373;-88
2024/01/26 00:41:18;;;;;;;11.90;7.73;;;;;;;2.51;100.00;96710.94;7399268;19;20379;-88
2024/01/26 00:43:45;;;;;;;16.90;7.20;;;;;;;1.59;100.00;96545.66;7401165;19;20397;-88
2024/01/26 00:46:13;;;;;;;15.43;8.50;;;;;;;2.86;100.00;96723.59;7401589;19;20361;-88
2024/01/26 00:48:41;;;;;;;15.63;7.87;;;;;;;3.65;100.00;96824.50;7400520;19;20392;-89
2024/01/26 00:51:09;;;;;;;13.87;6.40;;;;;;;2.66;100.00;96694.81;7401053;19;20381;-88
2024/01/26 00:53:36;;;;;;;10.50;6.27;;;;;;;3.41;100.00;96800.56;7398449;19;20521;-88
2024/01/26 00:56:04;;;;;;;16.30;7.37;;;;;;;2.26;100.00;96606.97;7401352;19;20373;-88
2024/01/26 00:58:31;;;;;;;15.40;8.90;;;;;;;3.26;100.00;96764.06;7399028;19;20373;-88
2024/01/26 01:00:59;;;;;;;13.13;7.60;;;;;;;3.35;100.00;96780.00;7400705;19;20401;-88
2024/01/26 01:03:26;;;;;;;16.47;6.97;;;;;;;2.58;100.00;96662.31;7399382;19;20400;-88
2024/01/26 01:05:54;;;;;;;22.50;9.30;;;;;;;3.26;100.00;96771.84;7401926;19;20866;-88
2024/01/26 01:08:21;;;;;;;14.47;9.07;;;;;;;3.13;100.00;96725.50;7400815;19;20388;-88
2024/01/26 01:10:48;;;;;;;17.03;7.57;;;;;;;3.23;100.00;96731.63;7400125;19;20448;-88
2024/01/26 01:13:16;;;;;;;14.57;7.30;;;;;;;2.83;100.00;96661.09;7400233;19;20416;-88
2024/01/26 01:15:43;;;;;;;27.17;7.90;;;;;;;2.99;100.00;96697.34;7400066;19;20369;-88
2024/01/26 01:18:10;;;;;;;25.00;9.83;;;;;;;2.87;100.00;96668.16;7398506;19;20782;-88
2024/01/26 01:20:38;;;;;;;24.93;9.97;;;;;;;3.23;100.00;96721.25;7400035;19;20385;-88
2024/01/26 01:23:05;;;;;;;21.60;10.13;;;;;;;3.27;100.00;96716.34;7399177;19;20488;-88
2024/01/26 01:25:33;;;;;;;18.70;9.10;;;;;;;3.21;100.00;96710.31;7399907;19;20365;-88
2024/01/26 01:28:00;;;;;;;15.57;8.60;;;;;;;3.33;100.00;96730.97;7400378;19;20380;-88
2024/01/26 01:30:28;;;;;;;12.97;9.40;;;;;;;3.08;100.00;96676.19;7400107;19;20393;-88
2024/01/26 01:32:55;;;;;;;18.63;10.03;;;;;;;2.64;100.00;96624.31;7399340;19;20404;-88
2024/01/26 01:35:23;;;;;;;21.37;9.60;;;;;;;3.13;100.00;96708.13;7399413;19;20380;-88
2024/01/26 01:37:50;;;;;;;22.20;8.83;;;;;;;2.90;100.00;96690.22;7398468;19;20377;-88
2024/01/26 01:40:18;;;;;;;17.50;8.37;;;;;;;3.51;100.00;96789.53;7400351;19;20448;-88
2024/01/26 01:42:46;;;;;;;18.60;6.87;;;;;;;2.72;100.00;96668.72;7411252;19;20784;-87
2024/01/26 01:45:14;;;;;;;13.33;8.27;;;;;;;3.94;100.00;96843.28;7416538;19;20365;-86
2024/01/26 01:47:42;;;;;;;17.97;7.73;;;;;;;2.58;100.00;96636.41;7406970;19;20385;-88
2024/01/26 01:50:11;;;;;;;15.40;7.40;;;;;;;3.68;100.00;96825.81;7399212;19;20372;-88
2024/01/26 01:52:42;;;;;;;27.63;8.50;;;;;;;3.38;100.00;96787.31;7396555;19;20400;-88
2024/01/26 01:55:12;;;;;;;15.10;9.20;;;;;;;2.55;100.00;96662.00;7398643;19;20380;-88
2024/01/26 01:57:40;;;;;;;13.97;9.40;;;;;;;3.72;100.00;96813.94;7398183;19;20384;-87
2024/01/26 02:00:18;;;;;;;16.60;8.00;;;;;;;2.58;100.00;96641.59;7398569;19;20380;-88
2024/01/26 02:02:48;;;;;;;17.60;8.60;;;;;;;2.96;100.00;96697.03;7397946;19;20464;-88
2024/01/26 02:05:18;;;;;;;17.87;8.53;;;;;;;3.05;100.00;96712.97;7398234;19;20402;-88
2024/01/26 02:07:50;;;;;;;14.20;9.03;;;;;;;3.69;100.00;96791.03;7398721;19;20372;-88
2024/01/26 02:10:18;;;;;;;19.17;8.00;;;;;;;3.14;100.00;96704.53;7398130;19;20380;-88
2024/01/26 02:12:46;;;;;;;10.90;6.97;;;;;;;3.18;100.00;96697.06;7397870;19;20425;-88
2024/01/26 02:15:13;;;;;;;21.93;8.97;;;;;;;3.45;100.00;96730.84;7398462;19;20385;-88
2024/01/26 02:17:41;;;;;;;16.50;8.20;;;;;;;3.25;100.00;96695.84;7397715;19;20418;-88
2024/01/26 02:20:09;;;;;;;11.70;7.70;;;;;;;3.23;100.00;96681.56;7397988;19;20450;-88
2024/01/26 02:22:38;;;;;;;18.73;7.60;;;;;;;3.12;100.00;96677.28;7397652;19;20393;-88
2024/01/26 02:25:07;;;;;;;8.20;7.17;;;;;;;2.89;100.00;96623.84;7397999;19;20432;-88
2024/01/26 02:27:35;;;;;;;19.10;8.90;;;;;;;3.66;100.00;96737.81;7398313;19;20400;-88
2024/01/26 02:30:06;;;;;;;15.13;8.00;;;;;;;2.89;100.00;96618.66;7396366;19;20353;-88
2024/01/26 02:32:35;;;;;;;17.83;8.93;;;;;;;3.65;100.00;96731.06;7399246;19;20372;-88
2024/01/26 02:35:03;;;;;;;13.03;8.70;;;;;;;3.87;100.00;96747.41;7399199;19;20372;-88
2024/01/26 02:37:31;;;;;;;13.57;8.10;;;;;;;3.35;100.00;96682.22;7397572;19;20382;-88
2024/01/26 02:39:58;;;;;;;13.03;6.87;;;;;;;4.02;100.00;96782.34;7397932;19;20392;-88
2024/01/26 02:42:26;;;;;;;17.97;8.57;;;;;;;3.14;100.00;96650.06;7397345;19;20768;-88
2024/01/26 02:44:53;;;;;;;19.57;9.07;;;;;;;3.44;100.00;96691.16;7399018;19;20847;-88
2024/01/26 02:47:21;;;;;;;13.97;8.17;;;;;;;3.90;100.00;96764.31;7396969;19;20381;-88
2024/01/26 02:49:48;;;;;;;19.93;9.97;;;;;;;3.84;100.00;96750.50;7398781;19;20372;-88
2024/01/26 02:52:16;;;;;;;19.23;9.23;;;;;;;2.92;100.00;96606.00;7395814;19;20424;-88
2024/01/26 02:54:43;;;;;;;25.83;8.57;;;;;;;3.58;100.00;96686.38;7397291;19;20436;-88
2024/01/26 02:57:10;;;;;;;21.77;9.77;;;;;;;2.90;100.00;96573.59;7397133;19;20371;-88
2024/01/26 02:59:40;;;;;;;15.80;8.63;;;;;;;3.49;100.00;96667.06;7395131;19;20393;-88
2024/01/26 03:02:08;;;;;;;19.33;7.57;;;;;;;3.51;100.00;96665.78;7396553;19;20393;-88
2024/01/26 03:04:35;;;;;;;11.10;7.53;;;;;;;3.78;100.00;96719.53;7392206;19;20499;-89
2024/01/26 03:07:03;;;;;;;25.80;8.40;;;;;;;3.31;100.00;96639.63;7396733;19;20698;-88
2024/01/26 03:09:31;;;;;;;23.00;9.20;;;;;;;3.50;100.00;96695.34;7396825;19;20847;-88
2024/01/26 03:11:58;;;;;;;15.77;9.07;;;;;;;3.40;100.00;96669.28;7396333;19;20385;-88
2024/01/26 03:14:26;;;;;;;19.07;8.40;;;;;;;3.53;100.00;96683.69;7395000;19;20421;-88
2024/01/26 03:16:53;;;;;;;15.80;8.20;;;;;;;3.83;100.00;96733.34;7397658;19;20377;-88
2024/01/26 03:19:21;;;;;;;15.27;7.70;;;;;;;3.18;100.00;96648.56;7394633;19;20387;-88
2024/01/26 03:21:48;;;;;;;17.27;7.80;;;;;;;3.72;100.00;96708.31;7397086;19;20396;-88
2024/01/26 03:24:16;;;;;;;22.53;8.30;;;;;;;3.86;100.00;96726.88;7394694;19;20389;-88
2024/01/26 03:26:43;;;;;;;17.20;7.83;;;;;;;3.44;100.00;96657.41;7396025;19;20388;-88
2024/01/26 03:29:11;;;;;;;17.70;8.90;;;;;;;3.65;100.00;96696.53;7395896;19;20401;-88
2024/01/26 03:31:39;;;;;;;20.87;8.33;;;;;;;3.48;100.00;96670.69;7395931;19;20878;-88
2024/01/26 03:34:09;;;;;;;22.73;9.53;;;;;;;3.98;100.00;96740.50;7395154;19;20405;-88
2024/01/26 03:36:37;;;;;;;20.40;10.23;;;;;;;3.99;100.00;96742.06;7396048;19;20405;-88
2024/01/26 03:39:04;;;;;;;23.70;9.50;;;;;;;4.33;100.00;96801.59;7394383;19;20863;-88
2024/01/26 03:41:32;;;;;;;19.23;9.23;;;;;;;3.62;100.00;96699.63;7395597;19;20389;-88
2024/01/26 03:43:59;;;;;;;32.90;11.10;;;;;;;4.27;100.00;96800.78;7394154;19;20429;-88
2024/01/26 03:46:27;;;;;;;27.07;9.03;;;;;;;3.52;100.00;96700.28;7395880;19;20385;-88
2024/01/26 03:48:54;;;;;;;23.40;9.30;;;;;;;3.18;100.00;96624.44;7395554;19;20420;-88
2024/01/26 03:51:22;;;;;;;20.13;9.30;;;;;;;3.61;100.00;96693.66;7395288;19;20398;-88
2024/01/26 03:53:49;;;;;;;19.80;10.00;;;;;;;3.75;100.00;96722.59;7392722;19;20445;-88
2024/01/26 03:56:16;;;;;;;17.97;9.33;;;;;;;3.53;100.00;96691.47;7395297;19;20404;-88
2024/01/26 03:58:44;;;;;;;24.90;9.23;;;;;;;3.06;100.00;96616.03;7394466;19;20406;-88
2024/01/26 04:01:12;;;;;;;25.90;9.30;;;;;;;4.00;100.00;96745.44;7394904;19;20375;-88
2024/01/26 04:03:39;;;;;;;17.13;8.30;;;;;;;3.38;100.00;96665.38;7393739;19;20427;-88
2024/01/26 04:06:08;;;;;;;27.10;11.40;;;;;;;3.50;100.00;96681.59;7395322;19;20452;-88
2024/01/26 04:08:38;;;;;;;21.23;10.00;;;;;;;3.85;100.00;96731.28;7394854;19;20385;-88
2024/01/26 04:11:07;;;;;;;36.47;9.90;;;;;;;3.71;100.00;96698.19;7395501;19;20389;-88
2024/01/26 04:13:34;;;;;;;24.37;10.20;;;;;;;3.29;100.00;96626.09;7393585;19;20438;-88
2024/01/26 04:16:02;;;;;;;15.10;8.83;;;;;;;4.05;100.00;96735.09;7401519;19;20459;-88
2024/01/26 04:18:29;;;;;;;22.10;10.10;;;;;;;3.69;100.00;96698.41;7400905;19;20384;-88
2024/01/26 04:20:57;;;;;;;13.27;9.30;;;;;;;3.55;100.00;96679.03;7402339;19;20880;-88
2024/01/26 04:23:24;;;;;;;18.40;10.97;;;;;;;3.72;100.00;96712.72;7400266;19;20429;-87
2024/01/26 04:25:52;;;;;;;30.93;9.17;;;;;;;3.11;100.00;96610.88;7401873;19;20907;-88
2024/01/26 04:28:19;;;;;;;19.27;9.77;;;;;;;3.79;100.00;96703.69;7401564;19;20364;-88
2024/01/26 04:30:47;;;;;;;15.93;10.30;;;;;;;4.01;100.00;96740.00;7402822;19;20701;-88
2024/01/26 04:33:15;;;;;;;22.43;9.77;;;;;;;3.06;100.00;96588.28;7400448;19;20929;-88
2024/01/26 04:35:42;;;;;;;18.07;9.73;;;;;;;3.68;100.00;96699.44;7401229;19;20385;-88
2024/01/26 04:38:10;;;;;;;26.57;8.50;;;;;;;3.51;100.00;96667.59;7400994;19;20444;-88
2024/01/26 04:40:40;;;;;;;15.27;9.00;;;;;;;3.63;100.00;96670.06;7402032;19;20405;-88
2024/01/26 04:43:08;;;;;;;11.67;8.13;;;;;;;3.18;100.00;96611.50;7401129;19;20413;-88
2024/01/26 04:45:35;;;;;;;20.83;9.07;;;;;;;3.63;100.00;96681.22;7401604;19;20393;-88
2024/01/26 04:48:04;;;;;;;14.93;8.70;;;;;;;3.86;100.00;96714.69;7400992;19;20460;-88
2024/01/26 04:50:32;;;;;;;19.03;10.03;;;;;;;4.40;100.00;96803.00;7401276;19;20388;-88
2024/01/26 04:53:00;;;;;;;14.67;9.77;;;;;;;4.06;100.00;96737.44;7398990;19;20420;-88
2024/01/26 04:55:28;;;;;;;19.93;10.80;;;;;;;3.78;100.00;96696.94;7400719;19;20883;-88
2024/01/26 04:57:56;;;;;;;34.70;11.70;;;;;;;3.47;100.00;96636.16;7400857;19;20681;-88
2024/01/26 05:00:23;;;;;;;18.77;8.60;;;;;;;2.98;100.00;96573.16;7398088;19;20449;-88
2024/01/26 05:02:51;;;;;;;26.40;10.13;;;;;;;3.73;100.00;96680.53;7400063;19;20480;-88
2024/01/26 05:05:19;;;;;;;18.60;8.87;;;;;;;4.53;100.00;96790.63;7400810;19;20385;-88
2024/01/26 05:07:46;;;;;;;29.40;8.70;;;;;;;4.12;100.00;96725.31;7400798;19;20430;-88
2024/01/26 05:10:15;;;;;;;15.40;9.13;;;;;;;3.62;100.00;96645.91;7400183;19;20385;-88
2024/01/26 05:12:42;;;;;;;16.30;10.00;;;;;;;3.70;100.00;96655.88;7401311;19;20361;-88
2024/01/26 05:15:11;;;;;;;10.80;7.73;;;;;;;4.64;100.00;96789.69;7399876;19;20456;-88
2024/01/26 05:17:39;;;;;;;17.57;8.10;;;;;;;4.02;100.00;96691.47;7400477;19;20380;-87
2024/01/26 05:20:08;;;;;;;18.50;8.60;;;;;;;4.15;100.00;96688.44;7397723;19;20385;-88
2024/01/26 05:22:36;;;;;;;11.70;7.87;;;;;;;3.68;100.00;96602.63;7399664;19;20422;-87
2024/01/26 05:25:04;;;;;;;20.93;9.07;;;;;;;4.01;100.00;96666.53;7399583;19;20385;-88
2024/01/26 05:27:31;;;;;;;16.53;7.67;;;;;;;4.04;100.00;96672.00;7398380;19;20357;-88
2024/01/26 05:29:58;;;;;;;20.63;9.03;;;;;;;4.20;100.00;96698.88;7401890;19;20440;-88
2024/01/26 05:32:26;;;;;;;18.23;9.33;;;;;;;4.02;100.00;96668.88;7399215;19;20850;-88
2024/01/26 05:34:54;;;;;;;19.23;9.20;;;;;;;3.96;100.00;96654.25;7399636;19;20370;-88
2024/01/26 05:37:21;;;;;;;19.00;9.83;;;;;;;3.57;100.00;96597.34;7399274;19;20388;-88
2024/01/26 05:39:48;;;;;;;17.57;10.00;;;;;;;3.97;100.00;96657.66;7398368;19;20380;-88
2024/01/26 05:42:16;;;;;;;17.87;7.63;;;;;;;3.85;100.00;96639.66;7399362;19;20394;-88
2024/01/26 05:44:43;;;;;;;16.90;8.37;;;;;;;4.11;100.00;96689.97;7399107;19;20881;-88
2024/01/26 05:47:11;;;;;;;10.07;7.00;;;;;;;4.11;100.00;96689.97;7399503;19;20413;-88
2024/01/26 05:49:39;;;;;;;17.40;8.87;;;;;;;4.14;100.00;96689.47;7398855;19;20372;-88
2024/01/26 05:52:06;;;;;;;17.80;8.87;;;;;;;4.02;100.00;96684.44;7398471;19;20464;-88
2024/01/26 05:54:34;;;;;;;17.40;9.30;;;;;;;3.65;100.00;96616.88;7397235;19;20408;-88
2024/01/26 05:57:01;;;;;;;22.83;9.70;;;;;;;3.74;100.00;96625.00;7399645;19;20361;-88
2024/01/26 05:59:29;;;;;;;13.00;8.07;;;;;;;3.96;100.00;96651.66;7398034;19;20393;-88
2024/01/26 06:01:56;;;;;;;15.70;8.93;;;;;;;4.00;100.00;96644.97;7398721;19;20933;-88
2024/01/26 06:04:23;;;;;;;14.40;9.73;;;;;;;3.56;100.00;96584.59;7396518;19;20878;-88
2024/01/26 06:06:51;;;;;;;27.23;8.00;;;;;;;3.97;100.00;96640.28;7398313;19;20387;-88
2024/01/26 06:09:18;;;;;;;17.23;9.03;;;;;;;3.23;100.00;96541.50;7398185;19;20402;-88
2024/01/26 06:11:46;;;;;;;16.63;9.03;;;;;;;4.11;100.00;96662.19;7397853;19;20680;-88
2024/01/26 06:14:14;;;;;;;13.00;8.13;;;;;;;4.01;100.00;96643.94;7396572;19;20930;-88
2024/01/26 06:16:42;;;;;;;25.83;9.90;;;;;;;4.24;100.00;96676.59;7398733;19;20393;-88
2024/01/26 06:19:10;;;;;;;18.93;9.40;;;;;;;3.70;100.00;96590.97;7398057;19;20373;-88
2024/01/26 06:21:37;;;;;;;11.60;9.43;;;;;;;3.89;100.00;96615.53;7398627;19;20456;-89
2024/01/26 06:24:05;;;;;;;20.03;8.60;;;;;;;4.14;100.00;96653.13;7421166;19;20413;-88
2024/01/26 06:26:32;;;;;;;15.40;7.90;;;;;;;4.10;100.00;96662.41;7425084;19;20394;-85
2024/01/26 06:29:01;;;;;;;17.60;9.57;;;;;;;4.20;100.00;96665.09;7402181;19;20400;-87
2024/01/26 06:31:29;;;;;;;18.63;9.30;;;;;;;4.79;100.00;96758.59;7397662;19;20444;-87
2024/01/26 06:33:56;;;;;;;17.40;8.73;;;;;;;4.08;100.00;96657.47;7396454;19;20420;-87
2024/01/26 06:36:23;;;;;;;20.50;9.07;;;;;;;4.28;100.00;96669.06;7399191;19;20447;-87
2024/01/26 06:38:51;;;;;;;16.60;9.47;;;;;;;4.25;100.00;96669.56;7396510;19;20361;-87
2024/01/26 06:41:18;;;;;;;17.27;9.40;;;;;;;3.60;100.00;96570.91;7396842;19;20907;-87
2024/01/26 06:43:51;;;;;;;22.93;9.90;;;;;;;3.82;100.00;96603.78;7396288;19;20388;-87
2024/01/26 06:46:24;;;;;;;17.17;10.97;;;;;;;4.31;100.00;96679.75;7399076;19;20357;-87
2024/01/26 06:48:51;;;;;;;20.20;12.30;;;;;;;3.80;100.00;96598.81;7398928;19;20379;-87
2024/01/26 06:51:19;;;;;;;16.50;9.90;;;;;;;3.93;100.00;96615.03;7396778;19;20361;-87
2024/01/26 06:53:47;;;;;;;16.77;9.37;;;;;;;4.19;100.00;96669.50;7394969;19;20983;-87
2024/01/26 06:56:14;;;;;;;11.80;8.00;;;;;;;3.74;100.00;96601.66;7396417;19;20389;-87
2024/01/26 06:58:41;;;;;;;27.00;10.90;;;;;;;4.14;100.00;96671.31;7397223;19;20381;-87
2024/01/26 07:01:09;;;;;;;21.03;10.30;;;;;;;4.22;100.00;96670.81;7394590;19;20891;-87
2024/01/26 07:03:36;;;;;;;22.23;10.33;;;;;;;4.00;100.00;96626.00;7395616;19;20433;-87
2024/01/26 07:06:04;;;;;;;18.63;9.77;;;;;;;4.11;100.00;96633.63;7396232;19;20384;-86
2024/01/26 07:08:32;;;;;;;23.87;10.13;;;;;;;4.02;100.00;96616.16;7396852;19;20388;-87
2024/01/26 07:11:06;;;;;;;22.23;11.60;;;;;;;4.18;100.00;96646.38;7395990;19;20399;-87
2024/01/26 07:13:33;;;;;;;23.20;10.97;;;;;;;4.06;100.00;96627.59;7394943;19;20425;-88
2024/01/26 07:16:01;;;;;;;17.10;11.00;;;;;;;4.36;100.00;96674.56;7395783;19;20384;-87
2024/01/26 07:18:28;;;;;;;22.90;11.00;;;;;;;4.09;100.00;96630.47;7396971;19;20391;-88
2024/01/26 07:20:56;;;;;;;20.47;11.00;;;;;;;4.04;100.00;96627.84;7394892;19;20392;-87
2024/01/26 07:23:23;;;;;;;20.30;13.50;;;;;;;3.39;100.00;96525.06;7395002;19;20420;-88
2024/01/26 07:25:51;;;;;;;27.13;11.87;;;;;;;4.26;100.00;96656.34;7396215;19;20396;-88
2024/01/26 07:28:18;;;;;;;23.23;12.80;;;;;;;4.07;100.00;96631.75;7395675;19;20373;-88
2024/01/26 07:30:46;;;;;;;28.90;14.70;;;;;;;4.17;100.00;96637.03;7396325;19;20361;-88
2024/01/26 07:33:14;;;;;;;26.23;11.97;;;;;;;4.36;100.00;96661.59;7395015;19;20381;-88
2024/01/26 07:35:41;;;;;;;23.27;14.30;;;;;;;4.16;100.00;96612.09;7395818;19;20372;-88
2024/01/26 07:38:09;;;;;;;15.03;9.80;;;;;;;4.27;100.00;96626.72;7396086;19;20392;-88
2024/01/26 07:40:36;;;;;;;16.40;10.33;;;;;;;4.11;100.00;96588.69;7394176;19;20672;-88
2024/01/26 07:43:04;;;;;;;23.23;9.43;;;;;;;4.23;100.00;96606.66;7394448;19;20444;-88
2024/01/26 07:45:31;;;;;;;16.77;11.77;;;;;;;4.65;100.00;96664.66;7395039;19;20398;-88
2024/01/26 07:47:59;;;;;;;18.20;11.97;;;;;;;4.76;100.00;96671.44;7395207;19;20412;-88
2024/01/26 07:50:26;;;;;;;20.27;12.63;;;;;;;4.96;100.00;96693.41;7399806;19;20393;-88
2024/01/26 07:52:54;;;;;;;20.33;12.73;;;;;;;4.54;100.00;96626.63;7400716;19;20408;-88
2024/01/26 07:55:21;;;;;;;21.47;12.87;;;;;;;3.88;100.00;96527.50;7402805;19;20352;-88
2024/01/26 07:57:48;;;;;;;21.47;12.97;;;;;;;4.26;100.00;96586.19;7402378;19;20878;-87
2024/01/26 08:00:17;;;;;;;20.00;12.20;;;;;;;4.25;100.00;96574.25;7402722;19;20391;-88
2024/01/26 08:02:46;;;;;;;26.00;13.60;;;;;;;4.81;100.00;96654.34;7404445;19;20372;-88
2024/01/26 08:05:13;;;;;;;33.10;14.70;;;;;;;4.07;100.00;96533.06;7402800;19;20388;-88
2024/01/26 08:07:42;;;;;;;23.07;12.30;;;;;;;4.30;100.00;96557.88;7401999;19;20886;-88
2024/01/26 08:10:10;;;;;;;27.53;14.37;;;;;;;4.69;100.00;96612.94;7401810;19;20878;-88
2024/01/26 08:12:40;;;;;;;20.53;11.97;;;;;;;5.19;100.00;96689.63;7401876;19;20380;-88
2024/01/26 08:15:12;;;;;;;20.33;12.30;;;;;;;4.81;100.00;96626.53;7402579;19;20365;-88
2024/01/26 08:17:41;;;;;;;23.57;12.40;;;;;;;4.76;100.00;96608.28;7401819;19;20382;-88
2024/01/26 08:20:10;;;;;;;24.23;11.37;;;;;;;4.28;100.00;96519.19;7401069;19;20448;-88
2024/01/26 08:22:39;;;;;;;20.13;12.50;;;;;;;4.54;100.00;96559.06;7400920;19;20405;-88
2024/01/26 08:25:08;;;;;;;22.33;13.20;;;;;;;3.97;100.00;96466.31;7401610;19;20379;-88
2024/01/26 08:27:36;;;;;;;14.07;10.63;;;;;;;4.77;100.00;96584.66;7403533;19;20401;-96
2024/01/26 08:30:09;;;;;;;19.47;12.33;;;;;;;5.01;100.00;96605.78;7405195;19;20372;-96
2024/01/26 08:32:42;;;;;;;17.27;11.07;;;;;;;5.45;100.00;96646.28;7402941;19;20384;-91
2024/01/26 08:35:11;;;;;;;17.10;11.63;;;;;;;5.13;100.00;96583.97;7402242;19;20374;-92
2024/01/26 08:37:39;;;;;;;18.07;12.33;;;;;;;5.37;100.00;96605.91;7403288;19;20365;-91
2024/01/26 08:40:09;;;;;;;17.90;12.87;;;;;;;4.72;100.00;96501.41;7400540;19;20381;-92
2024/01/26 08:42:36;;;;;;;20.40;12.60;;;;;;;5.71;100.00;96652.31;7401200;19;20408;-91
2024/01/26 08:45:04;;;;;;;20.63;12.30;;;;;;;4.32;100.00;96436.31;7401765;19;20369;-91
2024/01/26 08:47:32;;;;;;;22.60;12.50;;;;;;;5.48;100.00;96602.28;7401401;19;20394;-91
2024/01/26 08:49:59;;;;;;;18.50;12.00;;;;;;;4.87;100.00;96494.69;7401790;19;20385;-91
2024/01/26 08:52:27;;;;;;;21.93;12.60;;;;;;;5.56;100.00;96586.13;7400047;19;20389;-91
2024/01/26 08:54:57;;;;;;;24.53;12.33;;;;;;;4.80;100.00;96463.75;7402194;19;20866;-89
2024/01/26 08:57:25;;;;;;;18.67;12.53;;;;;;;5.28;100.00;96524.94;7400094;19;20456;-88
2024/01/26 08:59:52;;;;;;;18.87;13.10;;;;;;;5.38;100.00;96542.41;7399416;19;20401;-88
2024/01/26 09:02:20;;;;;;;24.13;13.43;;;;;;;5.02;100.00;96486.91;7397476;19;20705;-89
2024/01/26 09:04:47;;;;;;;23.27;14.00;;;;;;;5.56;100.00;96564.53;7399688;19;20384;-89
2024/01/26 09:07:17;;;;;;;24.13;13.70;;;;;;;5.54;100.00;96556.19;7399772;19;20393;-89
2024/01/26 09:09:45;;;;;;;21.50;12.40;;;;;;;5.69;100.00;96553.59;7400181;19;20394;-89
2024/01/26 09:12:13;;;;;;;19.90;13.63;;;;;;;5.46;100.00;96504.69;7399751;19;20373;-88
2024/01/26 09:14:41;;;;;;;24.37;14.50;;;;;;;5.25;100.00;96489.03;7399941;19;20387;-88
2024/01/26 09:17:08;;;;;;;21.73;15.50;;;;;;;5.86;100.00;96582.78;7400365;19;20361;-88
2024/01/26 09:19:36;;;;;;;20.13;13.37;;;;;;;5.55;100.00;96532.50;7400051;19;20369;-89
2024/01/26 09:22:03;;;;;;;23.37;15.97;;;;;;;5.80;100.00;96559.59;7399455;19;20365;-88
2024/01/26 09:24:31;;;;;;;27.23;16.00;;;;;;;5.13;100.00;96462.50;7397119;19;20434;-89
2024/01/26 09:26:58;;;;;;;27.03;14.60;;;;;;;5.84;100.00;96545.81;7399472;19;20376;-88
2024/01/26 09:29:28;;;;;;;25.30;13.43;;;;;;;5.97;100.00;96523.66;7399337;19;20392;-89
2024/01/26 09:31:56;;;;;;;19.37;13.90;;;;;;;6.05;100.00;96517.13;7398887;19;20376;-88
2024/01/26 09:34:25;;;;;;;24.00;15.03;;;;;;;6.53;100.00;96560.81;7397468;19;20396;-88
2024/01/26 09:36:53;;;;;;;25.00;14.73;;;;;;;6.35;100.00;96511.06;7399482;19;20389;-88
2024/01/26 09:39:24;;;;;;;19.57;14.20;;;;;;;6.40;100.00;96517.06;7398866;19;20385;-88
2024/01/26 09:41:53;;;;;;;12.00;8.80;;;;;;;6.84;100.00;96475.38;7396618;19;20385;-87
2024/01/26 09:44:21;;;;;;;12.60;10.27;;;;;;;6.97;100.00;96468.00;7396766;19;20416;-88
2024/01/26 09:46:49;;;;;;;7.00;6.40;;;;;;;7.39;100.00;96491.72;7398478;19;20910;-88
2024/01/26 09:49:17;;;;;;;5.83;5.33;;;;;;;7.64;100.00;96450.81;7398775;19;20415;-88
2024/01/26 09:51:45;;;;;;;6.00;4.80;;;;;;;7.86;100.00;96445.13;7398854;19;20392;-88
2024/01/26 09:54:15;;;;;;;3.80;3.50;;;;;;;8.14;100.00;96456.59;7396574;19;20910;-88
2024/01/26 09:56:43;;;;;;;2.83;2.63;;;;;;;8.97;100.00;96563.41;7398911;19;20385;-88
2024/01/26 09:59:11;;;;;;;3.77;3.00;;;;;;;8.47;100.00;96463.53;7398770;19;20866;-92
2024/01/26 10:01:41;;;;;;;3.73;3.03;;;;;;;8.46;100.00;96461.19;7399063;19;20401;-93
2024/01/26 10:04:10;;;;;;;2.40;2.13;;;;;;;7.54;100.00;96294.19;7398872;19;20400;-92
2024/01/26 10:06:38;;;;;;;2.20;2.00;;;;;;;8.37;100.00;96400.88;7400573;19;20887;-88
2024/01/26 10:09:08;;;;;;;3.00;2.17;;;;;;;8.78;100.00;96461.31;7397663;19;20377;-88
2024/01/26 10:11:36;;;;;;;3.57;3.20;;;;;;;8.72;100.00;96435.47;7398728;19;20396;-88
2024/01/26 10:14:03;;;;;;;3.10;2.83;;;;;;;8.79;100.00;96428.06;7395688;19;20416;-88
2024/01/26 10:16:31;;;;;;;2.67;2.47;;;;;;;8.97;100.00;96453.47;7397481;19;20368;-88
2024/01/26 10:18:58;;;;;;;2.27;2.13;;;;;;;9.07;100.00;96444.69;7397440;19;20368;-88
2024/01/26 10:21:26;;;;;;;3.30;2.50;;;;;;;8.98;100.00;96428.06;7396260;19;20396;-88
2024/01/26 10:23:54;;;;;;;2.20;1.90;;;;;;;8.78;100.00;96384.66;7396632;19;20397;-88
2024/01/26 10:26:22;;;;;;;2.47;2.27;;;;;;;9.24;100.00;96448.34;7397681;19;20467;-88
2024/01/26 10:28:50;;;;;;;3.47;2.80;;;;;;;8.59;100.00;96345.38;7397425;19;20361;-88
2024/01/26 10:31:19;;;;;;;2.20;1.87;;;;;;;8.94;100.00;96410.31;7397358;19;20377;-88
2024/01/26 10:33:50;;;;;;;13.20;10.30;;;;;;;9.01;100.00;96403.91;7395980;19;20496;-88
2024/01/26 10:36:20;;;;;;;4.53;3.87;;;;;;;9.14;100.00;96419.69;7397462;19;20877;-88
2024/01/26 10:38:49;;;;;;;2.57;2.00;;;;;;;9.47;100.00;96461.63;7397500;19;20871;-88
2024/01/26 10:41:21;;;;;;;2.10;1.90;;;;;;;9.31;100.00;96429.66;7396171;19;20394;-88
2024/01/26 10:43:53;;;;;;;4.53;3.03;;;;;;;9.46;100.00;96445.13;7395842;19;20424;-88
2024/01/26 10:46:21;;;;;;;2.60;2.30;;;;;;;9.22;100.00;96413.81;7397634;19;20377;-88
2024/01/26 10:48:51;;;;;;;1.83;1.47;;;;;;;9.91;100.00;96507.56;7409896;19;20424;-87
2024/01/26 10:51:21;;;;;;;2.33;2.10;;;;;;;9.12;100.00;96393.00;7426649;19;20450;-88
2024/01/26 10:53:51;;;;;;;1.63;1.53;;;;;;;9.92;100.00;96507.25;7411681;19;20428;-88
2024/01/26 10:56:18;;;;;;;1.70;1.60;;;;;;;9.43;100.00;96423.94;7396814;19;20671;-88
2024/01/26 10:58:46;;;;;;;1.50;1.23;;;;;;;9.24;100.00;96398.59;7398548;19;20369;-88
2024/01/26 11:01:17;;;;;;;1.53;1.30;;;;;;;9.64;100.00;96461.09;7395708;19;20744;-89
2024/01/26 11:03:45;;;;;;;2.60;2.47;;;;;;;9.07;100.00;96376.63;7394728;19;20926;-88
2024/01/26 11:06:13;;;;;;;2.00;1.80;;;;;;;9.17;100.00;96372.00;7396444;19;20675;-88
2024/01/26 11:08:41;;;;;;;1.53;1.43;;;;;;;9.50;100.00;96411.25;7395862;19;20384;-88
2024/01/26 11:11:08;;;;;;;2.57;2.00;;;;;;;9.30;100.00;96380.16;7396137;19;20365;-88
2024/01/26 11:13:37;;;;;;;2.37;2.00;;;;;;;9.37;100.00;96391.06;7394940;19;20413;-88
2024/01/26 11:16:06;;;;;;;2.80;1.70;;;;;;;9.17;100.00;96351.06;7396216;19;20383;-87
2024/01/26 11:18:37;;;;;;;1.33;1.23;;;;;;;9.95;100.00;96467.34;7395726;19;20389;-88
2024/01/26 11:21:05;;;;;;;1.53;1.43;;;;;;;9.26;100.00;96343.28;7395523;19;20381;-88
2024/01/26 11:23:44;;;;;;;1.77;1.67;;;;;;;9.39;100.00;96378.44;7394468;19;20404;-89
2024/01/26 11:26:16;;;;;;;1.30;1.20;;;;;;;10.01;100.00;96468.84;7402769;19;20878;-88
2024/01/26 11:28:47;;;;;;;1.70;1.60;;;;;;;9.44;100.00;96378.34;7403959;19;20384;-88